Big Bear Station Historical Data
Daily Summary for June 14, 2017 Units:  English    Metric   Both
Next Day »
Daily Weekly Monthly Yearly Custom
  High: Low: Average:
Temperature: 81.1 °F 38.3 °F 57.6 °F
Dew Point: 44.4 °F 23.2 °F 34 °F
Humidity: 80% 21% 46%
Wind Speed: 7.3mph 0.0mph 1.6mph
Wind Gust: -999.0mph - -
Wind- - WNW
Pressure: 30.22 in 30.14 in -
Precipitation: 0.00 in    
Historical Graphs
 
 
Tabular Data for June 14, 2017
Time Temperature Dew Point Pressure Wind Wind Speed Wind Gust Humidity Rainfall Rate (Hourly)
00:04 44.4 °F 28.8 °F 30.15 in Calm   -999.0 mph 54% 0 in
00:19 43.9 °F 27.9 °F 30.15 in Calm   -999.0 mph 53% 0 in
00:34 43.5 °F 27.5 °F 30.15 in Calm   -999.0 mph 53% 0 in
00:49 42.8 °F 24.5 °F 30.15 in Calm   -999.0 mph 48% 0 in
01:04 42.4 °F 25.1 °F 30.15 in Calm   -999.0 mph 50% 0 in
01:20 42.3 °F 26.4 °F 30.14 in Calm   -999.0 mph 53% 0 in
01:35 41.7 °F 26.3 °F 30.14 in Calm   -999.0 mph 54% 0 in
01:50 41.4 °F 26.4 °F 30.14 in Calm   -999.0 mph 55% 0 in
02:05 41.4 °F 26.0 °F 30.14 in Calm   -999.0 mph 54% 0 in
02:21 40.8 °F 25.4 °F 30.14 in Calm   -999.0 mph 54% 0 in
02:36 40.8 °F 25.9 °F 30.14 in Calm   -999.0 mph 55% 0 in
02:51 40.3 °F 28.3 °F 30.14 in Calm   -999.0 mph 62% 0 in
03:06 40.3 °F 28.7 °F 30.14 in Calm   -999.0 mph 63% 0 in
03:21 39.9 °F 29.5 °F 30.14 in Calm   -999.0 mph 66% 0 in
03:37 39.9 °F 30.9 °F 30.14 in Calm   -999.0 mph 70% 0 in
03:52 39.7 °F 30.7 °F 30.14 in Calm   -999.0 mph 70% 0 in
04:07 39.6 °F 31.3 °F 30.14 in Calm   -999.0 mph 72% 0 in
04:22 39.7 °F 30.7 °F 30.14 in Calm   -999.0 mph 70% 0 in
04:37 39.6 °F 31.3 °F 30.14 in Calm   -999.0 mph 72% 0 in
04:53 39.2 °F 30.6 °F 30.14 in Calm   -999.0 mph 71% 0 in
05:08 39.2 °F 30.9 °F 30.14 in Calm   -999.0 mph 72% 0 in
05:23 39.0 °F 30.7 °F 30.14 in Calm   -999.0 mph 72% 0 in
05:38 38.7 °F 30.1 °F 30.14 in Calm   -999.0 mph 71% 0 in
05:53 38.7 °F 26.0 °F 30.15 in Calm   -999.0 mph 60% 0 in
06:09 38.3 °F 27.2 °F 30.15 in Calm   -999.0 mph 64% 0 in
06:24 38.5 °F 27.8 °F 30.15 in Calm   -999.0 mph 65% 0 in
06:39 39.2 °F 29.5 °F 30.15 in Calm   -999.0 mph 68% 0 in
06:54 39.9 °F 31.3 °F 30.15 in Calm   -999.0 mph 71% 0 in
07:09 40.6 °F 32.3 °F 30.16 in Calm   -999.0 mph 72% 0 in
07:25 41.7 °F 34.4 °F 30.16 in Calm   -999.0 mph 75% 0 in
07:40 43.3 °F 37.5 °F 30.16 in Calm   -999.0 mph 80% 0 in
07:55 45.3 °F 38.2 °F 30.16 in Calm   -999.0 mph 76% 0 in
08:10 47.5 °F 33.9 °F 30.16 in Calm   -999.0 mph 59% 0 in
08:25 49.3 °F 29.4 °F 30.16 in Calm   -999.0 mph 46% 0 in
08:41 51.8 °F 31.1 °F 30.16 in NW 2.7 mph -999.0 mph 45% 0 in
08:56 54.3 °F 34.5 °F 30.16 in NW 1.7 mph -999.0 mph 47% 0 in
09:11 56.8 °F 33.9 °F 30.16 in NW 2.7 mph -999.0 mph 42% 0 in
09:26 59.5 °F 31.8 °F 30.16 in NNW 2.7 mph -999.0 mph 35% 0 in
09:42 61.7 °F 30.7 °F 30.16 in WNW 1.7 mph -999.0 mph 31% 0 in
09:57 63.9 °F 23.2 °F 30.16 in WNW 2.2 mph -999.0 mph 21% 0 in
10:12 66.4 °F 26.4 °F 30.16 in NNW 2.7 mph -999.0 mph 22% 0 in
10:27 67.8 °F 27.6 °F 30.16 in NNW 3.2 mph -999.0 mph 22% 0 in
10:42 69.3 °F 28.8 °F 30.16 in NNW 3.2 mph -999.0 mph 22% 0 in
10:58 70.7 °F 33.1 °F 30.17 in NW 5.3 mph -999.0 mph 25% 0 in
11:13 71.4 °F 31.7 °F 30.17 in NNW 2.2 mph -999.0 mph 23% 0 in
11:28 72.7 °F 32.8 °F 30.16 in West 2.7 mph -999.0 mph 23% 0 in
11:44 75.0 °F 34.7 °F 30.17 in WNW 3.2 mph -999.0 mph 23% 0 in
11:59 76.8 °F 35.1 °F 30.17 in NNW 4.7 mph -999.0 mph 22% 0 in
12:14 77.5 °F 37.9 °F 30.17 in NW 3.2 mph -999.0 mph 24% 0 in
12:29 79.3 °F 39.4 °F 30.17 in NE 5.3 mph -999.0 mph 24% 0 in
12:45 79.0 °F 39.1 °F 30.17 in WNW 5.8 mph -999.0 mph 24% 0 in
13:00 80.4 °F 40.3 °F 30.17 in NW 5.3 mph -999.0 mph 24% 0 in
13:15 80.1 °F 39.0 °F 30.17 in NW 4.7 mph -999.0 mph 23% 0 in
13:31 80.2 °F 39.0 °F 30.17 in NW 4.7 mph -999.0 mph 23% 0 in
13:46 80.2 °F 40.1 °F 30.17 in NNW 6.3 mph -999.0 mph 24% 0 in
14:01 79.9 °F 37.7 °F 30.17 in NNW 4.7 mph -999.0 mph 22% 0 in
14:17 79.5 °F 39.6 °F 30.18 in SSE 4.7 mph -999.0 mph 24% 0 in
14:32 80.2 °F 40.1 °F 30.18 in WNW 3.7 mph -999.0 mph 24% 0 in
14:47 80.4 °F 41.4 °F 30.18 in SW 4.2 mph -999.0 mph 25% 0 in
15:02 79.5 °F 40.6 °F 30.18 in WNW 3.7 mph -999.0 mph 25% 0 in
15:18 80.4 °F 41.4 °F 30.18 in NW 1.7 mph -999.0 mph 25% 0 in
15:33 78.3 °F 39.6 °F 30.18 in West 4.7 mph -999.0 mph 25% 0 in
15:48 79.9 °F 42.9 °F 30.18 in NW 2.7 mph -999.0 mph 27% 0 in
16:04 79.3 °F 41.4 °F 30.18 in WNW 4.2 mph -999.0 mph 26% 0 in
16:19 78.8 °F 42.0 °F 30.18 in West 4.2 mph -999.0 mph 27% 0 in
16:34 79.2 °F 40.4 °F 30.18 in WSW 4.7 mph -999.0 mph 25% 0 in
16:49 80.6 °F 41.5 °F 30.18 in North 5.8 mph -999.0 mph 25% 0 in
17:05 81.1 °F 42.0 °F 30.17 in NNW 7.3 mph -999.0 mph 25% 0 in
17:20 80.4 °F 42.4 °F 30.17 in NW 4.7 mph -999.0 mph 26% 0 in
19:44 65.7 °F 44.4 °F 30.19 in WNW 1.1 mph -999.0 mph 46% 0 in
19:59 64.4 °F 43.7 °F 30.19 in Calm   -999.0 mph 47% 0 in
20:15 62.1 °F 43.2 °F 30.19 in Calm   -999.0 mph 50% 0 in
20:30 60.3 °F 42.6 °F 30.19 in Calm   -999.0 mph 52% 0 in
20:45 59.2 °F 40.6 °F 30.20 in Calm   -999.0 mph 50% 0 in
21:00 57.7 °F 39.7 °F 30.20 in Calm   -999.0 mph 51% 0 in
21:15 57.2 °F 37.1 °F 30.20 in Calm   -999.0 mph 47% 0 in
21:31 56.3 °F 37.9 °F 30.20 in Calm   -999.0 mph 50% 0 in
21:46 55.4 °F 36.6 °F 30.20 in Calm   -999.0 mph 49% 0 in
22:01 54.3 °F 34.5 °F 30.21 in Calm   -999.0 mph 47% 0 in
22:16 53.6 °F 33.3 °F 30.21 in Calm   -999.0 mph 46% 0 in
22:31 53.1 °F 33.4 °F 30.22 in Calm   -999.0 mph 47% 0 in
22:47 52.2 °F 33.6 °F 30.22 in Calm   -999.0 mph 49% 0 in
23:02 51.8 °F 33.7 °F 30.21 in Calm   -999.0 mph 50% 0 in
23:17 51.3 °F 34.3 °F 30.21 in Calm   -999.0 mph 52% 0 in
23:32 50.9 °F 35.8 °F 30.21 in Calm   -999.0 mph 56% 0 in
23:47 50.4 °F 35.7 °F 30.21 in Calm   -999.0 mph 57% 0 in
Big Bear CA Weather